createdAt,value
2022-08-28T00:00:40.764Z,18.29
2022-08-28T00:03:09.570Z,18.32
2022-08-28T00:05:39.916Z,18.35
2022-08-28T00:08:09.002Z,18.39
2022-08-28T00:10:39.217Z,18.39
2022-08-28T00:13:08.327Z,18.41
2022-08-28T00:15:39.019Z,18.41
2022-08-28T00:18:08.277Z,18.39
2022-08-28T00:20:37.231Z,18.42
2022-08-28T00:23:07.541Z,18.42
2022-08-28T00:25:36.245Z,18.41
2022-08-28T00:28:08.793Z,18.42
2022-08-28T00:30:39.570Z,18.42
2022-08-28T00:33:10.691Z,18.44
2022-08-28T00:35:40.045Z,18.41
2022-08-28T00:38:10.576Z,18.41
2022-08-28T00:40:39.338Z,18.41
2022-08-28T00:43:09.296Z,18.39
2022-08-28T00:45:40.058Z,18.41
2022-08-28T00:48:09.804Z,18.39
2022-08-28T00:50:52.195Z,18.39
2022-08-28T00:53:22.457Z,18.38
2022-08-28T00:55:55.038Z,18.34
2022-08-28T00:58:23.072Z,18.25
2022-08-28T01:00:51.127Z,18.21
2022-08-28T01:03:19.162Z,18.18
2022-08-28T01:05:49.265Z,18.16
2022-08-28T01:08:18.581Z,18.10
2022-08-28T01:10:51.429Z,18.07
2022-08-28T01:13:19.742Z,17.96
2022-08-28T01:15:49.341Z,17.91
2022-08-28T01:18:17.821Z,17.84
2022-08-28T01:20:50.351Z,17.73
2022-08-28T01:23:24.558Z,17.65
2022-08-28T01:25:53.929Z,17.56
2022-08-28T01:28:21.934Z,17.48
2022-08-28T01:30:50.285Z,17.36
2022-08-28T01:33:19.569Z,17.28
2022-08-28T01:35:56.110Z,17.22
2022-08-28T01:38:26.935Z,17.16
2022-08-28T01:40:57.774Z,17.08
2022-08-28T01:43:27.631Z,17.07
2022-08-28T01:46:00.085Z,17.00
2022-08-28T01:48:29.445Z,16.97
2022-08-28T01:50:57.441Z,16.85
2022-08-28T01:53:33.078Z,16.81
2022-08-28T01:56:05.620Z,16.76
2022-08-28T01:58:38.114Z,16.73
2022-08-28T02:01:11.566Z,16.70
2022-08-28T02:03:39.841Z,16.70
2022-08-28T02:06:08.011Z,16.63
2022-08-28T02:08:36.807Z,16.60
2022-08-28T02:11:08.770Z,16.56
2022-08-28T02:13:38.094Z,16.55
2022-08-28T02:16:08.816Z,16.49
2022-08-28T02:18:37.812Z,16.53
2022-08-28T02:21:06.044Z,16.47
2022-08-28T02:23:34.148Z,16.49
2022-08-28T02:26:02.099Z,16.49
2022-08-28T02:28:31.354Z,16.46
2022-08-28T02:30:59.712Z,16.49
2022-08-28T02:33:27.856Z,16.46
2022-08-28T02:35:56.363Z,16.46
2022-08-28T02:38:24.412Z,16.44
2022-08-28T02:40:52.810Z,16.44
2022-08-28T02:43:20.836Z,16.44
2022-08-28T02:45:50.382Z,16.43
2022-08-28T02:48:18.547Z,16.42
2022-08-28T02:50:47.128Z,16.42
2022-08-28T02:53:15.216Z,16.42
2022-08-28T02:55:43.173Z,16.40
2022-08-28T02:58:11.402Z,16.40
2022-08-28T03:00:40.124Z,16.40
2022-08-28T03:03:09.448Z,16.43
2022-08-28T03:05:37.429Z,16.37
2022-08-28T03:08:05.746Z,16.39
2022-08-28T03:10:33.807Z,16.37
2022-08-28T03:13:01.806Z,16.39
2022-08-28T03:15:29.763Z,16.37
2022-08-28T03:17:57.725Z,16.36
2022-08-28T03:20:27.064Z,16.36
2022-08-28T03:23:13.118Z,16.35
2022-08-28T03:25:41.136Z,16.32
2022-08-28T03:28:09.141Z,16.33
2022-08-28T03:30:37.405Z,16.32
2022-08-28T03:33:05.416Z,16.28
2022-08-28T03:35:34.943Z,16.28
2022-08-28T03:38:03.110Z,16.25
2022-08-28T03:40:32.256Z,16.28
2022-08-28T03:43:00.392Z,16.29
2022-08-28T03:45:28.540Z,16.23
2022-08-28T03:47:56.503Z,16.22
2022-08-28T03:50:25.849Z,16.18
2022-08-28T03:52:59.238Z,16.18
2022-08-28T03:55:27.240Z,16.16
2022-08-28T03:57:55.218Z,16.15
2022-08-28T04:00:23.417Z,16.15
2022-08-28T04:02:51.468Z,16.12
2022-08-28T04:05:19.617Z,16.11
2022-08-28T04:07:48.209Z,16.08
2022-08-28T04:10:17.724Z,16.06
2022-08-28T04:12:45.684Z,15.97
2022-08-28T04:15:15.171Z,15.88
2022-08-28T04:17:43.339Z,15.82
2022-08-28T04:20:12.118Z,15.78
2022-08-28T04:22:40.513Z,15.75
2022-08-28T04:25:09.160Z,15.70
2022-08-28T04:27:38.475Z,15.63
2022-08-28T04:30:09.916Z,15.58
2022-08-28T04:32:39.399Z,15.54
2022-08-28T04:35:09.643Z,15.47
2022-08-28T04:37:39.066Z,15.44
2022-08-28T04:40:09.810Z,15.42
2022-08-28T04:42:39.989Z,15.37
2022-08-28T04:45:08.533Z,15.33
2022-08-28T04:47:37.941Z,15.30
2022-08-28T04:50:07.725Z,15.27
2022-08-28T04:52:35.680Z,15.19
2022-08-28T04:55:04.183Z,15.18
2022-08-28T04:57:35.767Z,15.18
2022-08-28T05:00:09.163Z,15.13
2022-08-28T05:02:37.229Z,15.15
2022-08-28T05:05:05.957Z,15.12
2022-08-28T05:07:34.885Z,15.12
2022-08-28T05:10:03.879Z,15.12
2022-08-28T05:12:32.416Z,15.13
2022-08-28T05:15:00.421Z,15.18
2022-08-28T05:17:32.244Z,15.20
2022-08-28T05:20:00.213Z,15.20
2022-08-28T05:22:28.915Z,15.26
2022-08-28T05:24:57.036Z,15.26
2022-08-28T05:27:25.732Z,15.30
2022-08-28T05:29:56.311Z,15.32
2022-08-28T05:32:26.694Z,15.32
2022-08-28T05:34:56.021Z,15.37
2022-08-28T05:37:24.115Z,15.37
2022-08-28T05:39:52.104Z,15.39
2022-08-28T05:42:20.263Z,15.44
2022-08-28T05:44:48.322Z,15.49
2022-08-28T05:47:22.655Z,15.53
2022-08-28T05:49:50.842Z,15.57
2022-08-28T05:52:21.813Z,15.61
2022-08-28T05:54:49.873Z,15.63
2022-08-28T05:57:18.047Z,15.67
2022-08-28T05:59:46.011Z,15.71
2022-08-28T06:02:14.029Z,15.70
2022-08-28T06:04:42.075Z,15.68
2022-08-28T06:07:12.131Z,15.67
2022-08-28T06:09:41.455Z,15.65
2022-08-28T06:12:10.448Z,15.65
2022-08-28T06:14:40.156Z,15.70
2022-08-28T06:17:09.100Z,15.73
2022-08-28T06:19:41.379Z,15.73
2022-08-28T06:22:12.162Z,15.78
2022-08-28T06:24:42.207Z,15.82
2022-08-28T06:27:10.221Z,15.88
2022-08-28T06:29:39.807Z,15.95
2022-08-28T06:32:09.114Z,15.98
2022-08-28T06:34:37.263Z,16.08
2022-08-28T06:37:05.412Z,16.14
2022-08-28T06:39:33.414Z,16.28
2022-08-28T06:42:02.994Z,16.35
2022-08-28T06:44:32.292Z,16.43
2022-08-28T06:47:00.822Z,16.52
2022-08-28T06:49:29.005Z,16.64
2022-08-28T06:51:57.184Z,16.71
2022-08-28T06:54:25.284Z,16.77
2022-08-28T06:56:54.212Z,16.76
2022-08-28T06:59:23.563Z,16.80
2022-08-28T07:01:52.910Z,16.85
2022-08-28T07:04:21.088Z,16.90
2022-08-28T07:06:54.134Z,16.92
2022-08-28T07:09:23.226Z,16.95
2022-08-28T07:11:51.363Z,17.05
2022-08-28T07:14:19.385Z,17.10
2022-08-28T07:16:48.700Z,17.10
2022-08-28T07:19:17.020Z,17.14
2022-08-28T07:21:46.734Z,17.19
2022-08-28T07:24:16.118Z,17.22
2022-08-28T07:26:44.892Z,17.21
2022-08-28T07:29:13.122Z,17.22
2022-08-28T07:31:42.765Z,17.29
2022-08-28T07:34:13.944Z,17.34
2022-08-28T07:36:42.790Z,17.39
2022-08-28T07:39:13.162Z,17.46
2022-08-28T07:41:43.037Z,17.53
2022-08-28T07:44:31.579Z,17.65
2022-08-28T07:47:05.875Z,17.72
2022-08-28T07:49:36.314Z,17.77
2022-08-28T07:52:05.012Z,17.77
2022-08-28T07:54:33.263Z,17.84
2022-08-28T07:57:02.705Z,17.93
2022-08-28T07:59:36.585Z,17.97
2022-08-28T08:02:05.503Z,18.01
2022-08-28T08:04:35.453Z,18.14
2022-08-28T08:07:04.497Z,18.21
2022-08-28T08:09:33.866Z,18.34
2022-08-28T08:12:01.902Z,18.39
2022-08-28T08:14:29.982Z,18.39
2022-08-28T08:17:02.102Z,18.38
2022-08-28T08:19:30.107Z,18.41
2022-08-28T08:21:59.627Z,18.39
2022-08-28T08:24:30.206Z,18.41
2022-08-28T08:27:01.209Z,18.39
2022-08-28T08:29:31.802Z,18.37
2022-08-28T08:32:05.552Z,18.39
2022-08-28T08:34:36.341Z,18.39
2022-08-28T08:37:06.182Z,18.45
2022-08-28T08:39:35.025Z,18.47
2022-08-28T08:42:05.424Z,18.45
2022-08-28T08:44:35.331Z,18.49
2022-08-28T08:47:13.808Z,18.56
2022-08-28T08:49:44.905Z,18.71
2022-08-28T08:52:30.201Z,18.75
2022-08-28T08:55:07.965Z,18.69
2022-08-28T08:57:38.290Z,18.72
2022-08-28T09:00:11.220Z,18.69
2022-08-28T09:02:46.629Z,18.64
2022-08-28T09:05:18.799Z,18.62
2022-08-28T09:07:56.576Z,18.56
2022-08-28T09:10:26.381Z,18.61
2022-08-28T09:12:58.735Z,18.59
2022-08-28T09:15:31.326Z,18.65
2022-08-28T09:18:09.830Z,18.71
2022-08-28T09:20:37.966Z,18.75
2022-08-28T09:23:12.809Z,18.78
2022-08-28T09:25:54.653Z,18.78
2022-08-28T09:28:25.710Z,18.73
2022-08-28T09:31:05.657Z,18.72
2022-08-28T09:33:41.913Z,18.71
2022-08-28T09:36:27.361Z,18.68
2022-08-28T09:39:12.347Z,18.59
2022-08-28T09:42:10.789Z,18.58
2022-08-28T09:44:54.650Z,18.59
2022-08-28T09:47:46.480Z,18.59
2022-08-28T09:50:33.857Z,18.55
2022-08-28T09:53:18.317Z,18.62
2022-08-28T09:55:54.495Z,18.65
2022-08-28T09:58:22.782Z,18.59
2022-08-28T10:00:56.285Z,18.61
2022-08-28T10:03:27.929Z,18.61
2022-08-28T10:06:04.414Z,18.59
2022-08-28T10:08:52.076Z,18.58
2022-08-28T10:11:26.390Z,18.49
2022-08-28T10:14:04.048Z,18.47
2022-08-28T10:16:44.796Z,18.45
2022-08-28T10:19:21.089Z,18.44
2022-08-28T10:21:52.482Z,18.39
2022-08-28T10:24:31.316Z,18.37
2022-08-28T10:27:10.092Z,18.39
2022-08-28T10:29:49.583Z,18.48
2022-08-28T10:32:31.969Z,18.48
2022-08-28T10:35:14.858Z,18.55
2022-08-28T10:37:51.017Z,18.59
2022-08-28T10:40:23.946Z,18.68
2022-08-28T10:42:57.927Z,18.66
2022-08-28T10:45:27.216Z,18.73
2022-08-28T10:47:58.275Z,18.76
2022-08-28T10:50:29.497Z,18.73
2022-08-28T10:53:01.188Z,18.78
2022-08-28T10:55:34.584Z,18.90
2022-08-28T10:58:21.524Z,18.99
2022-08-28T11:00:53.602Z,19.10
2022-08-28T11:03:34.383Z,19.14
2022-08-28T11:06:05.825Z,19.23
2022-08-28T11:08:36.820Z,19.28
2022-08-28T11:11:06.706Z,19.27
2022-08-28T11:13:56.213Z,19.27
2022-08-28T11:16:26.628Z,19.30
2022-08-28T11:19:17.425Z,19.28
2022-08-28T11:21:48.405Z,19.33
2022-08-28T11:24:29.552Z,19.44
2022-08-28T11:27:06.539Z,19.55
2022-08-28T11:30:06.455Z,19.71
2022-08-28T11:32:41.511Z,19.87
2022-08-28T11:35:51.012Z,20.03
2022-08-28T11:39:12.930Z,20.34
2022-08-28T11:42:22.026Z,20.75
2022-08-28T11:44:51.560Z,20.92
2022-08-28T11:47:44.151Z,21.02
2022-08-28T11:50:32.419Z,21.09
2022-08-28T11:53:16.292Z,21.05
2022-08-28T11:56:10.268Z,21.32
2022-08-28T11:58:43.470Z,21.50
2022-08-28T12:01:14.226Z,21.62
2022-08-28T12:03:44.630Z,21.66
2022-08-28T12:06:14.422Z,21.77
2022-08-28T12:09:09.779Z,21.90
2022-08-28T12:12:00.612Z,21.94
2022-08-28T12:14:59.317Z,21.91
2022-08-28T12:17:49.320Z,21.96
2022-08-28T12:20:32.317Z,21.98
2022-08-28T12:23:02.529Z,22.02
2022-08-28T12:25:35.166Z,22.16
2022-08-28T12:28:12.963Z,22.24
2022-08-28T12:30:44.983Z,22.31
2022-08-28T12:33:19.757Z,22.27
2022-08-28T12:35:47.793Z,22.27
2022-08-28T12:38:20.276Z,22.27
2022-08-28T12:40:53.552Z,22.21
2022-08-28T12:43:29.499Z,22.32
2022-08-28T12:45:58.900Z,22.41
2022-08-28T12:48:34.003Z,22.44
2022-08-28T12:51:05.608Z,22.38
2022-08-28T12:53:41.542Z,22.21
2022-08-28T12:56:10.982Z,22.10
2022-08-28T12:58:40.577Z,22.04
2022-08-28T13:01:11.442Z,21.96
2022-08-28T13:03:47.099Z,22.07
2022-08-28T13:06:15.609Z,22.10
2022-08-28T13:08:43.667Z,22.04
2022-08-28T13:11:19.547Z,21.94
2022-08-28T13:13:50.040Z,21.93
2022-08-28T13:16:36.864Z,21.88
2022-08-28T13:19:14.990Z,21.90
2022-08-28T13:21:58.444Z,21.93
2022-08-28T13:24:30.029Z,21.87
2022-08-28T13:27:06.292Z,21.91
2022-08-28T13:29:37.142Z,21.96
2022-08-28T13:32:07.121Z,21.98
2022-08-28T13:34:37.669Z,21.87
2022-08-28T13:37:20.113Z,21.76
2022-08-28T13:39:48.692Z,21.81
2022-08-28T13:42:17.896Z,21.84
2022-08-28T13:44:48.569Z,21.87
2022-08-28T13:47:17.268Z,21.77
2022-08-28T13:49:47.339Z,21.67
2022-08-28T13:52:15.600Z,21.60
2022-08-28T13:54:45.490Z,21.66
2022-08-28T13:57:14.397Z,21.65
2022-08-28T13:59:42.847Z,21.66
2022-08-28T14:02:31.640Z,21.70
2022-08-28T14:05:01.390Z,21.59
2022-08-28T14:07:29.998Z,21.53
2022-08-28T14:09:58.259Z,21.42
2022-08-28T14:12:33.137Z,21.35
2022-08-28T14:15:02.471Z,21.35
2022-08-28T14:17:30.529Z,21.35
2022-08-28T14:19:59.838Z,21.35
2022-08-28T14:22:30.891Z,21.31
2022-08-28T14:24:58.984Z,21.32
2022-08-28T14:27:27.072Z,21.25
2022-08-28T14:29:55.155Z,21.28
2022-08-28T14:32:23.248Z,21.29
2022-08-28T14:34:51.491Z,21.31
2022-08-28T14:37:19.691Z,21.32
2022-08-28T14:39:50.535Z,21.39
2022-08-28T14:42:19.314Z,21.45
2022-08-28T14:44:47.399Z,21.50
2022-08-28T14:47:15.965Z,21.62
2022-08-28T14:49:44.126Z,21.74
2022-08-28T14:52:12.462Z,21.88
2022-08-28T14:54:40.463Z,21.94
2022-08-28T14:57:11.870Z,21.93
2022-08-28T14:59:39.903Z,21.98
2022-08-28T15:02:08.875Z,21.98
2022-08-28T15:04:38.049Z,22.07
2022-08-28T15:07:10.519Z,22.05
2022-08-28T15:09:40.947Z,22.05
2022-08-28T15:12:11.291Z,22.07
2022-08-28T15:14:39.308Z,22.07
2022-08-28T15:17:08.601Z,22.16
2022-08-28T15:19:36.881Z,22.17
2022-08-28T15:22:05.572Z,22.20
2022-08-28T15:24:34.634Z,22.17
2022-08-28T15:27:03.261Z,22.17
2022-08-28T15:29:32.651Z,22.18
2022-08-28T15:32:01.534Z,22.14
2022-08-28T15:34:29.793Z,22.16
2022-08-28T15:36:58.810Z,22.11
2022-08-28T15:39:46.463Z,22.10
2022-08-28T15:42:15.123Z,22.05
2022-08-28T15:44:44.579Z,22.05
2022-08-28T15:47:13.762Z,22.08
2022-08-28T15:49:43.640Z,22.05
2022-08-28T15:52:18.603Z,22.02
2022-08-28T15:54:46.580Z,21.97
2022-08-28T15:57:14.577Z,21.96
2022-08-28T15:59:49.761Z,21.96
2022-08-28T16:02:19.142Z,21.96
2022-08-28T16:04:47.260Z,21.94
2022-08-28T16:07:15.590Z,21.90
2022-08-28T16:09:43.602Z,21.88
2022-08-28T16:12:11.595Z,21.87
2022-08-28T16:14:39.716Z,21.84
2022-08-28T16:17:11.038Z,21.80
2022-08-28T16:19:39.653Z,21.80
2022-08-28T16:22:07.775Z,21.77
2022-08-28T16:24:36.141Z,21.71
2022-08-28T16:27:04.392Z,21.70
2022-08-28T16:29:34.892Z,21.67
2022-08-28T16:32:05.195Z,21.63
2022-08-28T16:34:35.039Z,21.59
2022-08-28T16:37:05.662Z,21.54
2022-08-28T16:39:36.091Z,21.56
2022-08-28T16:42:05.208Z,21.54
2022-08-28T16:44:33.503Z,21.49
2022-08-28T16:47:01.821Z,21.42
2022-08-28T16:49:30.289Z,21.32
2022-08-28T16:51:59.750Z,21.28
2022-08-28T16:54:27.771Z,21.23
2022-08-28T16:56:55.739Z,21.15
2022-08-28T16:59:24.228Z,21.06
2022-08-28T17:01:53.869Z,21.01
2022-08-28T17:04:22.891Z,20.92
2022-08-28T17:06:50.927Z,20.84
2022-08-28T17:09:21.100Z,20.77
2022-08-28T17:11:51.786Z,20.68
2022-08-28T17:14:20.855Z,20.63
2022-08-28T17:16:49.478Z,20.51
2022-08-28T17:19:17.935Z,20.43
2022-08-28T17:22:03.763Z,20.33
2022-08-28T17:24:33.144Z,20.24
2022-08-28T17:27:05.435Z,20.13
2022-08-28T17:29:34.134Z,20.10
2022-08-28T17:32:02.210Z,20.01
2022-08-28T17:34:30.752Z,19.93
2022-08-28T17:36:58.883Z,19.83
2022-08-28T17:39:26.983Z,19.74
2022-08-28T17:41:56.630Z,19.65
2022-08-28T17:44:24.691Z,19.57
2022-08-28T17:46:52.789Z,19.44
2022-08-28T17:49:22.312Z,19.36
2022-08-28T17:51:51.093Z,19.27
2022-08-28T17:54:22.575Z,19.14
2022-08-28T17:56:51.012Z,19.06
2022-08-28T17:59:21.140Z,18.97
2022-08-28T18:01:49.844Z,18.83
2022-08-28T18:04:23.914Z,18.71
2022-08-28T18:06:54.327Z,18.62
2022-08-28T18:09:22.976Z,18.51
2022-08-28T18:11:51.546Z,18.38
2022-08-28T18:14:21.269Z,18.27
2022-08-28T18:16:49.611Z,18.18
2022-08-28T18:19:17.777Z,18.07
2022-08-28T18:21:46.229Z,17.97
2022-08-28T18:24:14.433Z,17.84
2022-08-28T18:26:43.385Z,17.80
2022-08-28T18:29:11.489Z,17.69
2022-08-28T18:31:41.356Z,17.58
2022-08-28T18:34:10.364Z,17.50
2022-08-28T18:36:39.924Z,17.41
2022-08-28T18:39:08.260Z,17.29
2022-08-28T18:41:43.790Z,17.24
2022-08-28T18:44:14.100Z,17.15
2022-08-28T18:46:44.201Z,17.08
2022-08-28T18:49:12.789Z,17.02
2022-08-28T18:51:43.066Z,16.94
2022-08-28T18:54:11.287Z,16.87
2022-08-28T18:56:40.857Z,16.79
2022-08-28T18:59:09.386Z,16.74
2022-08-28T19:01:38.190Z,16.67
2022-08-28T19:04:07.761Z,16.66
2022-08-28T19:06:36.772Z,16.57
2022-08-28T19:09:06.451Z,16.53
2022-08-28T19:11:35.828Z,16.50
2022-08-28T19:14:04.270Z,16.44
2022-08-28T19:16:32.669Z,16.37
2022-08-28T19:19:01.487Z,16.33
2022-08-28T19:21:31.469Z,16.32
2022-08-28T19:23:59.469Z,16.30
2022-08-28T19:26:28.717Z,16.26
2022-08-28T19:28:56.986Z,16.22
2022-08-28T19:31:26.193Z,16.21
2022-08-28T19:33:54.677Z,16.19
2022-08-28T19:36:22.876Z,16.21
2022-08-28T19:38:52.184Z,16.16
2022-08-28T19:41:20.158Z,16.11
2022-08-28T19:43:48.163Z,16.05
2022-08-28T19:46:19.611Z,16.02
2022-08-28T19:48:48.428Z,15.98
2022-08-28T19:51:22.808Z,15.95
2022-08-28T19:53:57.867Z,15.91
2022-08-28T19:56:27.747Z,15.82
2022-08-28T19:58:58.505Z,15.75
2022-08-28T20:01:29.341Z,15.70
2022-08-28T20:03:58.129Z,15.65
2022-08-28T20:06:26.409Z,15.58
2022-08-28T20:08:55.841Z,15.56
2022-08-28T20:11:30.295Z,15.54
2022-08-28T20:14:06.576Z,15.49
2022-08-28T20:16:37.244Z,15.46
2022-08-28T20:19:08.063Z,15.39
2022-08-28T20:21:37.606Z,15.32
2022-08-28T20:24:09.940Z,15.22
2022-08-28T20:26:38.257Z,15.12
2022-08-28T20:29:07.533Z,15.00
2022-08-28T20:31:36.147Z,14.91
2022-08-28T20:34:04.916Z,14.82
2022-08-28T20:36:33.352Z,14.78
2022-08-28T20:39:04.382Z,14.67
2022-08-28T20:41:34.480Z,14.53
2022-08-28T20:44:04.955Z,14.47
2022-08-28T20:46:39.845Z,14.38
2022-08-28T20:49:09.709Z,14.30
2022-08-28T20:51:55.613Z,14.23
2022-08-28T20:54:27.515Z,14.13
2022-08-28T20:57:01.928Z,14.05
2022-08-28T20:59:39.511Z,13.98
2022-08-28T21:02:10.361Z,13.90
2022-08-28T21:04:39.122Z,13.85
2022-08-28T21:07:08.107Z,13.81
2022-08-28T21:10:03.829Z,13.78
2022-08-28T21:12:25.485Z,13.76
2022-08-28T21:14:53.948Z,13.75
2022-08-28T21:17:29.399Z,13.72
2022-08-28T21:19:59.179Z,13.69
2022-08-28T21:22:27.227Z,13.68
2022-08-28T21:24:55.460Z,13.62
2022-08-28T21:27:25.560Z,13.58
2022-08-28T21:29:56.393Z,13.55
2022-08-28T21:32:24.580Z,13.57
2022-08-28T21:34:53.083Z,13.58
2022-08-28T21:37:21.198Z,13.52
2022-08-28T21:39:49.309Z,13.58
2022-08-28T21:42:17.306Z,13.59
2022-08-28T21:44:51.946Z,13.55
2022-08-28T21:47:21.518Z,13.52
2022-08-28T21:49:50.389Z,13.52
2022-08-28T21:52:19.192Z,13.54
2022-08-28T21:54:47.245Z,13.57
2022-08-28T21:57:15.510Z,13.54
2022-08-28T21:59:43.835Z,13.52
2022-08-28T22:02:13.236Z,13.48
2022-08-28T22:04:41.368Z,13.48
2022-08-28T22:07:11.174Z,13.48
2022-08-28T22:09:39.355Z,13.48
2022-08-28T22:12:09.035Z,13.48
2022-08-28T22:14:37.495Z,13.47
2022-08-28T22:17:11.209Z,13.44
2022-08-28T22:19:41.296Z,13.42
2022-08-28T22:22:27.171Z,13.42
2022-08-28T22:24:55.209Z,13.42
2022-08-28T22:27:23.583Z,13.41
2022-08-28T22:29:52.078Z,13.41
2022-08-28T22:32:25.390Z,13.35
2022-08-28T22:34:55.718Z,13.37
2022-08-28T22:37:23.950Z,13.31
2022-08-28T22:39:52.161Z,13.32
2022-08-28T22:42:20.158Z,13.35
2022-08-28T22:44:48.564Z,13.32
2022-08-28T22:47:16.544Z,13.30
2022-08-28T22:49:47.244Z,13.28
2022-08-28T22:52:17.202Z,13.27
2022-08-28T22:54:45.603Z,13.24
2022-08-28T22:57:14.951Z,13.19
2022-08-28T22:59:42.994Z,13.19
2022-08-28T23:02:12.157Z,13.10
2022-08-28T23:04:40.629Z,13.10
2022-08-28T23:07:08.771Z,13.07
2022-08-28T23:09:38.437Z,13.04
2022-08-28T23:12:08.364Z,13.03
2022-08-28T23:14:36.629Z,12.99
2022-08-28T23:17:04.752Z,12.94
2022-08-28T23:19:32.767Z,12.96
2022-08-28T23:22:01.235Z,12.96
2022-08-28T23:24:31.356Z,12.91
2022-08-28T23:27:19.435Z,12.94
2022-08-28T23:29:53.195Z,12.96
2022-08-28T23:32:21.761Z,12.91
2022-08-28T23:34:50.247Z,12.89
2022-08-28T23:37:18.704Z,12.91
2022-08-28T23:39:46.852Z,12.90
2022-08-28T23:42:17.084Z,12.86
2022-08-28T23:44:46.288Z,12.84
2022-08-28T23:47:14.440Z,12.77
2022-08-28T23:49:42.931Z,12.79
2022-08-28T23:52:11.722Z,12.82
2022-08-28T23:54:40.390Z,12.80
2022-08-28T23:57:11.021Z,12.75
2022-08-28T23:59:40.479Z,12.72
